sensor_id;sensor_type;location;lat;lon;timestamp;P1;durP1;ratioP1;P2;durP2;ratioP2
13741;SDS011;8461;52.356;10.704;2022-09-02T00:01:44;1.33;;;0.50;;
13741;SDS011;8461;52.356;10.704;2022-09-02T00:04:18;1.60;;;0.80;;
13741;SDS011;8461;52.356;10.704;2022-09-02T00:06:47;0.90;;;0.50;;
13741;SDS011;8461;52.356;10.704;2022-09-02T00:09:14;3.33;;;0.60;;
13741;SDS011;8461;52.356;10.704;2022-09-02T00:11:42;2.83;;;0.60;;
13741;SDS011;8461;52.356;10.704;2022-09-02T00:14:11;1.83;;;0.40;;
13741;SDS011;8461;52.356;10.704;2022-09-02T00:16:41;0.57;;;0.40;;
13741;SDS011;8461;52.356;10.704;2022-09-02T00:19:09;2.30;;;0.70;;
13741;SDS011;8461;52.356;10.704;2022-09-02T00:21:35;0.87;;;0.40;;
13741;SDS011;8461;52.356;10.704;2022-09-02T00:24:01;0.80;;;0.50;;
13741;SDS011;8461;52.356;10.704;2022-09-02T00:26:28;1.00;;;0.50;;
13741;SDS011;8461;52.356;10.704;2022-09-02T00:28:53;1.93;;;0.60;;
13741;SDS011;8461;52.356;10.704;2022-09-02T00:31:19;3.00;;;0.60;;
13741;SDS011;8461;52.356;10.704;2022-09-02T00:33:45;2.97;;;0.70;;
13741;SDS011;8461;52.356;10.704;2022-09-02T00:36:11;1.80;;;0.70;;
13741;SDS011;8461;52.356;10.704;2022-09-02T00:38:37;1.13;;;0.50;;
13741;SDS011;8461;52.356;10.704;2022-09-02T00:41:04;2.37;;;0.50;;
13741;SDS011;8461;52.356;10.704;2022-09-02T00:43:45;0.73;;;0.60;;
13741;SDS011;8461;52.356;10.704;2022-09-02T00:46:13;0.87;;;0.40;;
13741;SDS011;8461;52.356;10.704;2022-09-02T00:48:42;0.60;;;0.43;;
13741;SDS011;8461;52.356;10.704;2022-09-02T00:51:12;0.87;;;0.50;;
13741;SDS011;8461;52.356;10.704;2022-09-02T00:53:39;0.80;;;0.50;;
13741;SDS011;8461;52.356;10.704;2022-09-02T00:56:08;1.40;;;0.60;;
13741;SDS011;8461;52.356;10.704;2022-09-02T00:58:37;4.70;;;0.60;;
13741;SDS011;8461;52.356;10.704;2022-09-02T01:01:03;1.77;;;0.50;;
13741;SDS011;8461;52.356;10.704;2022-09-02T01:03:30;1.00;;;0.43;;
13741;SDS011;8461;52.356;10.704;2022-09-02T01:05:57;0.80;;;0.70;;
13741;SDS011;8461;52.356;10.704;2022-09-02T01:08:26;0.77;;;0.60;;
13741;SDS011;8461;52.356;10.704;2022-09-02T01:10:56;1.20;;;0.57;;
13741;SDS011;8461;52.356;10.704;2022-09-02T01:13:24;0.90;;;0.50;;
13741;SDS011;8461;52.356;10.704;2022-09-02T01:15:56;1.27;;;0.50;;
13741;SDS011;8461;52.356;10.704;2022-09-02T01:18:27;2.83;;;0.70;;
13741;SDS011;8461;52.356;10.704;2022-09-02T01:20:58;1.07;;;0.60;;
13741;SDS011;8461;52.356;10.704;2022-09-02T01:23:24;0.97;;;0.43;;
13741;SDS011;8461;52.356;10.704;2022-09-02T01:25:52;1.00;;;0.40;;
13741;SDS011;8461;52.356;10.704;2022-09-02T01:28:18;2.00;;;0.60;;
13741;SDS011;8461;52.356;10.704;2022-09-02T01:30:46;1.20;;;0.67;;
13741;SDS011;8461;52.356;10.704;2022-09-02T01:33:13;1.33;;;0.70;;
13741;SDS011;8461;52.356;10.704;2022-09-02T01:35:39;1.07;;;0.60;;
13741;SDS011;8461;52.356;10.704;2022-09-02T01:38:05;1.97;;;0.60;;
13741;SDS011;8461;52.356;10.704;2022-09-02T01:40:31;0.87;;;0.43;;
13741;SDS011;8461;52.356;10.704;2022-09-02T01:43:03;1.00;;;0.70;;
13741;SDS011;8461;52.356;10.704;2022-09-02T01:45:32;2.03;;;0.83;;
13741;SDS011;8461;52.356;10.704;2022-09-02T01:47:59;0.77;;;0.60;;
13741;SDS011;8461;52.356;10.704;2022-09-02T01:50:26;2.67;;;0.73;;
13741;SDS011;8461;52.356;10.704;2022-09-02T01:52:52;0.97;;;0.50;;
13741;SDS011;8461;52.356;10.704;2022-09-02T01:55:18;0.80;;;0.50;;
13741;SDS011;8461;52.356;10.704;2022-09-02T01:57:43;0.83;;;0.57;;
13741;SDS011;8461;52.356;10.704;2022-09-02T02:00:09;2.17;;;0.57;;
13741;SDS011;8461;52.356;10.704;2022-09-02T02:02:36;1.90;;;0.70;;
13741;SDS011;8461;52.356;10.704;2022-09-02T02:05:02;2.70;;;0.60;;
13741;SDS011;8461;52.356;10.704;2022-09-02T02:07:28;3.60;;;0.70;;
13741;SDS011;8461;52.356;10.704;2022-09-02T02:09:54;1.43;;;0.77;;
13741;SDS011;8461;52.356;10.704;2022-09-02T02:12:20;1.97;;;0.60;;
13741;SDS011;8461;52.356;10.704;2022-09-02T02:14:46;2.30;;;0.67;;
13741;SDS011;8461;52.356;10.704;2022-09-02T02:17:11;1.57;;;0.77;;
13741;SDS011;8461;52.356;10.704;2022-09-02T02:19:37;1.07;;;0.63;;
13741;SDS011;8461;52.356;10.704;2022-09-02T02:22:03;1.07;;;0.83;;
13741;SDS011;8461;52.356;10.704;2022-09-02T02:24:28;1.70;;;0.60;;
13741;SDS011;8461;52.356;10.704;2022-09-02T02:26:54;1.00;;;0.70;;
13741;SDS011;8461;52.356;10.704;2022-09-02T02:29:20;1.20;;;0.70;;
13741;SDS011;8461;52.356;10.704;2022-09-02T02:31:46;1.67;;;0.80;;
13741;SDS011;8461;52.356;10.704;2022-09-02T02:34:12;1.40;;;0.70;;
13741;SDS011;8461;52.356;10.704;2022-09-02T02:36:38;2.20;;;0.77;;
13741;SDS011;8461;52.356;10.704;2022-09-02T02:39:05;2.70;;;0.90;;
13741;SDS011;8461;52.356;10.704;2022-09-02T02:41:33;2.40;;;0.70;;
13741;SDS011;8461;52.356;10.704;2022-09-02T02:43:59;2.40;;;0.80;;
13741;SDS011;8461;52.356;10.704;2022-09-02T02:46:24;3.23;;;0.83;;
13741;SDS011;8461;52.356;10.704;2022-09-02T02:48:50;2.17;;;0.90;;
13741;SDS011;8461;52.356;10.704;2022-09-02T02:51:15;1.63;;;0.70;;
13741;SDS011;8461;52.356;10.704;2022-09-02T02:53:41;2.80;;;0.70;;
13741;SDS011;8461;52.356;10.704;2022-09-02T02:56:07;1.50;;;0.80;;
13741;SDS011;8461;52.356;10.704;2022-09-02T02:58:33;2.30;;;0.60;;
13741;SDS011;8461;52.356;10.704;2022-09-02T03:00:59;0.77;;;0.50;;
13741;SDS011;8461;52.356;10.704;2022-09-02T03:03:25;2.10;;;0.70;;
13741;SDS011;8461;52.356;10.704;2022-09-02T03:05:52;0.83;;;0.73;;
13741;SDS011;8461;52.356;10.704;2022-09-02T03:08:18;1.23;;;0.83;;
13741;SDS011;8461;52.356;10.704;2022-09-02T03:10:45;3.07;;;0.90;;
13741;SDS011;8461;52.356;10.704;2022-09-02T03:13:17;1.20;;;0.70;;
13741;SDS011;8461;52.356;10.704;2022-09-02T03:15:45;2.80;;;1.07;;
13741;SDS011;8461;52.356;10.704;2022-09-02T03:18:11;1.40;;;0.83;;
13741;SDS011;8461;52.356;10.704;2022-09-02T03:20:37;2.10;;;0.87;;
13741;SDS011;8461;52.356;10.704;2022-09-02T03:23:04;1.23;;;0.80;;
13741;SDS011;8461;52.356;10.704;2022-09-02T03:25:30;1.67;;;0.90;;
13741;SDS011;8461;52.356;10.704;2022-09-02T03:27:57;1.30;;;0.90;;
13741;SDS011;8461;52.356;10.704;2022-09-02T03:30:24;1.77;;;1.00;;
13741;SDS011;8461;52.356;10.704;2022-09-02T03:32:52;1.13;;;0.77;;
13741;SDS011;8461;52.356;10.704;2022-09-02T03:35:20;1.37;;;0.80;;
13741;SDS011;8461;52.356;10.704;2022-09-02T03:37:47;2.63;;;1.13;;
13741;SDS011;8461;52.356;10.704;2022-09-02T03:40:15;2.93;;;1.00;;
13741;SDS011;8461;52.356;10.704;2022-09-02T03:42:43;5.97;;;1.10;;
13741;SDS011;8461;52.356;10.704;2022-09-02T03:45:09;1.87;;;0.80;;
13741;SDS011;8461;52.356;10.704;2022-09-02T03:47:36;1.30;;;0.93;;
13741;SDS011;8461;52.356;10.704;2022-09-02T03:50:07;1.50;;;0.80;;
13741;SDS011;8461;52.356;10.704;2022-09-02T03:52:33;3.90;;;1.00;;
13741;SDS011;8461;52.356;10.704;2022-09-02T03:55:00;2.03;;;0.90;;
13741;SDS011;8461;52.356;10.704;2022-09-02T03:57:27;4.67;;;1.07;;
13741;SDS011;8461;52.356;10.704;2022-09-02T03:59:52;1.93;;;0.90;;
13741;SDS011;8461;52.356;10.704;2022-09-02T04:02:18;2.83;;;0.93;;
13741;SDS011;8461;52.356;10.704;2022-09-02T04:04:44;4.53;;;1.70;;
13741;SDS011;8461;52.356;10.704;2022-09-02T04:07:09;3.50;;;1.00;;
13741;SDS011;8461;52.356;10.704;2022-09-02T04:09:35;2.13;;;1.30;;
13741;SDS011;8461;52.356;10.704;2022-09-02T04:12:02;1.90;;;1.10;;
13741;SDS011;8461;52.356;10.704;2022-09-02T04:14:29;3.37;;;1.20;;
13741;SDS011;8461;52.356;10.704;2022-09-02T04:16:54;1.97;;;1.10;;
13741;SDS011;8461;52.356;10.704;2022-09-02T04:19:20;1.87;;;0.87;;
13741;SDS011;8461;52.356;10.704;2022-09-02T04:21:45;2.53;;;1.23;;
13741;SDS011;8461;52.356;10.704;2022-09-02T04:24:11;1.97;;;1.03;;
13741;SDS011;8461;52.356;10.704;2022-09-02T04:26:37;2.60;;;0.93;;
13741;SDS011;8461;52.356;10.704;2022-09-02T04:29:03;1.57;;;1.20;;
13741;SDS011;8461;52.356;10.704;2022-09-02T04:31:30;2.40;;;0.97;;
13741;SDS011;8461;52.356;10.704;2022-09-02T04:33:56;3.10;;;1.20;;
13741;SDS011;8461;52.356;10.704;2022-09-02T04:36:22;1.50;;;1.00;;
13741;SDS011;8461;52.356;10.704;2022-09-02T04:38:49;2.07;;;1.00;;
13741;SDS011;8461;52.356;10.704;2022-09-02T04:41:17;4.77;;;0.93;;
13741;SDS011;8461;52.356;10.704;2022-09-02T04:43:47;3.00;;;1.40;;
13741;SDS011;8461;52.356;10.704;2022-09-02T04:46:14;2.17;;;1.00;;
13741;SDS011;8461;52.356;10.704;2022-09-02T04:48:40;1.83;;;1.10;;
13741;SDS011;8461;52.356;10.704;2022-09-02T04:51:08;1.50;;;1.13;;
13741;SDS011;8461;52.356;10.704;2022-09-02T04:53:35;4.57;;;1.10;;
13741;SDS011;8461;52.356;10.704;2022-09-02T04:56:05;1.93;;;1.03;;
13741;SDS011;8461;52.356;10.704;2022-09-02T04:58:33;7.90;;;1.50;;
13741;SDS011;8461;52.356;10.704;2022-09-02T05:01:04;6.40;;;1.70;;
13741;SDS011;8461;52.356;10.704;2022-09-02T05:03:34;2.87;;;1.17;;
13741;SDS011;8461;52.356;10.704;2022-09-02T05:06:02;1.67;;;1.07;;
13741;SDS011;8461;52.356;10.704;2022-09-02T05:08:29;1.43;;;1.20;;
13741;SDS011;8461;52.356;10.704;2022-09-02T05:10:55;3.17;;;1.23;;
13741;SDS011;8461;52.356;10.704;2022-09-02T05:13:21;3.43;;;1.30;;
13741;SDS011;8461;52.356;10.704;2022-09-02T05:15:47;1.83;;;1.20;;
13741;SDS011;8461;52.356;10.704;2022-09-02T05:18:13;3.30;;;1.10;;
13741;SDS011;8461;52.356;10.704;2022-09-02T05:20:39;1.50;;;1.40;;
13741;SDS011;8461;52.356;10.704;2022-09-02T05:23:07;2.07;;;1.20;;
13741;SDS011;8461;52.356;10.704;2022-09-02T05:25:35;5.10;;;1.50;;
13741;SDS011;8461;52.356;10.704;2022-09-02T05:28:02;2.47;;;1.27;;
13741;SDS011;8461;52.356;10.704;2022-09-02T05:30:27;5.53;;;2.00;;
13741;SDS011;8461;52.356;10.704;2022-09-02T05:32:53;3.63;;;1.50;;
13741;SDS011;8461;52.356;10.704;2022-09-02T05:35:19;3.90;;;1.50;;
13741;SDS011;8461;52.356;10.704;2022-09-02T05:37:44;2.07;;;1.40;;
13741;SDS011;8461;52.356;10.704;2022-09-02T05:40:10;4.00;;;1.70;;
13741;SDS011;8461;52.356;10.704;2022-09-02T05:42:37;2.93;;;1.50;;
13741;SDS011;8461;52.356;10.704;2022-09-02T05:45:03;3.57;;;1.30;;
13741;SDS011;8461;52.356;10.704;2022-09-02T05:47:29;4.60;;;1.57;;
13741;SDS011;8461;52.356;10.704;2022-09-02T05:49:57;3.50;;;1.70;;
13741;SDS011;8461;52.356;10.704;2022-09-02T05:52:24;6.60;;;1.87;;
13741;SDS011;8461;52.356;10.704;2022-09-02T05:54:50;3.63;;;2.67;;
13741;SDS011;8461;52.356;10.704;2022-09-02T05:57:16;3.83;;;1.93;;
13741;SDS011;8461;52.356;10.704;2022-09-02T05:59:43;9.90;;;3.93;;
13741;SDS011;8461;52.356;10.704;2022-09-02T06:02:09;2.90;;;1.70;;
13741;SDS011;8461;52.356;10.704;2022-09-02T06:04:40;7.03;;;1.80;;
13741;SDS011;8461;52.356;10.704;2022-09-02T06:07:07;8.60;;;3.10;;
13741;SDS011;8461;52.356;10.704;2022-09-02T06:09:33;5.03;;;1.60;;
13741;SDS011;8461;52.356;10.704;2022-09-02T06:11:58;4.10;;;1.80;;
13741;SDS011;8461;52.356;10.704;2022-09-02T06:14:24;6.80;;;1.73;;
13741;SDS011;8461;52.356;10.704;2022-09-02T06:16:51;6.90;;;4.03;;
13741;SDS011;8461;52.356;10.704;2022-09-02T06:19:19;2.80;;;2.13;;
13741;SDS011;8461;52.356;10.704;2022-09-02T06:21:46;2.57;;;1.90;;
13741;SDS011;8461;52.356;10.704;2022-09-02T06:24:12;5.23;;;1.90;;
13741;SDS011;8461;52.356;10.704;2022-09-02T06:26:38;3.67;;;1.80;;
13741;SDS011;8461;52.356;10.704;2022-09-02T06:29:05;3.57;;;2.10;;
13741;SDS011;8461;52.356;10.704;2022-09-02T06:31:32;3.07;;;1.43;;
13741;SDS011;8461;52.356;10.704;2022-09-02T06:33:58;2.10;;;1.67;;
13741;SDS011;8461;52.356;10.704;2022-09-02T06:36:25;2.47;;;1.43;;
13741;SDS011;8461;52.356;10.704;2022-09-02T06:38:53;4.47;;;2.20;;
13741;SDS011;8461;52.356;10.704;2022-09-02T06:41:24;4.57;;;1.50;;
13741;SDS011;8461;52.356;10.704;2022-09-02T06:43:54;2.33;;;1.57;;
13741;SDS011;8461;52.356;10.704;2022-09-02T06:46:22;2.43;;;1.60;;
13741;SDS011;8461;52.356;10.704;2022-09-02T06:48:49;2.70;;;1.60;;
13741;SDS011;8461;52.356;10.704;2022-09-02T06:51:17;4.50;;;1.57;;
13741;SDS011;8461;52.356;10.704;2022-09-02T06:53:48;2.37;;;1.50;;
13741;SDS011;8461;52.356;10.704;2022-09-02T06:56:13;3.83;;;1.57;;
13741;SDS011;8461;52.356;10.704;2022-09-02T06:58:39;8.20;;;1.80;;
13741;SDS011;8461;52.356;10.704;2022-09-02T07:01:05;2.90;;;1.60;;
13741;SDS011;8461;52.356;10.704;2022-09-02T07:03:31;4.07;;;1.73;;
13741;SDS011;8461;52.356;10.704;2022-09-02T07:06:15;5.13;;;1.80;;
13741;SDS011;8461;52.356;10.704;2022-09-02T07:08:41;2.30;;;1.37;;
13741;SDS011;8461;52.356;10.704;2022-09-02T07:11:14;2.60;;;1.73;;
13741;SDS011;8461;52.356;10.704;2022-09-02T07:13:44;1.47;;;1.37;;
13741;SDS011;8461;52.356;10.704;2022-09-02T07:16:10;3.67;;;1.30;;
13741;SDS011;8461;52.356;10.704;2022-09-02T07:18:36;3.17;;;1.53;;
13741;SDS011;8461;52.356;10.704;2022-09-02T07:21:02;3.27;;;1.50;;
13741;SDS011;8461;52.356;10.704;2022-09-02T07:23:27;1.60;;;1.30;;
13741;SDS011;8461;52.356;10.704;2022-09-02T07:25:53;2.10;;;1.57;;
13741;SDS011;8461;52.356;10.704;2022-09-02T07:28:20;2.53;;;1.67;;
13741;SDS011;8461;52.356;10.704;2022-09-02T07:30:46;3.43;;;1.40;;
13741;SDS011;8461;52.356;10.704;2022-09-02T07:33:12;6.03;;;1.80;;
13741;SDS011;8461;52.356;10.704;2022-09-02T07:35:40;1.33;;;1.17;;
13741;SDS011;8461;52.356;10.704;2022-09-02T07:38:07;3.77;;;1.63;;
13741;SDS011;8461;52.356;10.704;2022-09-02T07:40:34;2.37;;;1.60;;
13741;SDS011;8461;52.356;10.704;2022-09-02T07:43:00;3.67;;;1.30;;
13741;SDS011;8461;52.356;10.704;2022-09-02T07:45:31;3.57;;;1.50;;
13741;SDS011;8461;52.356;10.704;2022-09-02T07:47:57;1.83;;;1.40;;
13741;SDS011;8461;52.356;10.704;2022-09-02T07:50:23;2.10;;;1.13;;
13741;SDS011;8461;52.356;10.704;2022-09-02T07:52:51;3.30;;;1.47;;
13741;SDS011;8461;52.356;10.704;2022-09-02T07:55:18;2.63;;;1.63;;
13741;SDS011;8461;52.356;10.704;2022-09-02T07:57:45;3.13;;;1.33;;
13741;SDS011;8461;52.356;10.704;2022-09-02T08:00:12;3.67;;;1.30;;
13741;SDS011;8461;52.356;10.704;2022-09-02T08:02:38;3.77;;;1.20;;
13741;SDS011;8461;52.356;10.704;2022-09-02T08:05:04;1.77;;;1.47;;
13741;SDS011;8461;52.356;10.704;2022-09-02T08:07:30;2.90;;;1.60;;
13741;SDS011;8461;52.356;10.704;2022-09-02T08:09:56;2.93;;;1.50;;
13741;SDS011;8461;52.356;10.704;2022-09-02T08:12:24;1.77;;;1.47;;
13741;SDS011;8461;52.356;10.704;2022-09-02T08:14:50;2.33;;;1.10;;
13741;SDS011;8461;52.356;10.704;2022-09-02T08:17:16;4.23;;;1.50;;
13741;SDS011;8461;52.356;10.704;2022-09-02T08:19:41;5.23;;;1.67;;
13741;SDS011;8461;52.356;10.704;2022-09-02T08:22:08;5.57;;;1.37;;
13741;SDS011;8461;52.356;10.704;2022-09-02T08:24:34;2.23;;;1.63;;
13741;SDS011;8461;52.356;10.704;2022-09-02T08:27:00;5.10;;;1.30;;
13741;SDS011;8461;52.356;10.704;2022-09-02T08:29:25;3.77;;;1.30;;
13741;SDS011;8461;52.356;10.704;2022-09-02T08:31:51;3.17;;;1.13;;
13741;SDS011;8461;52.356;10.704;2022-09-02T08:34:16;2.23;;;0.97;;
13741;SDS011;8461;52.356;10.704;2022-09-02T08:36:42;3.30;;;1.20;;
13741;SDS011;8461;52.356;10.704;2022-09-02T08:39:09;5.83;;;1.47;;
13741;SDS011;8461;52.356;10.704;2022-09-02T08:41:44;3.97;;;1.00;;
13741;SDS011;8461;52.356;10.704;2022-09-02T08:44:20;3.97;;;1.27;;
13741;SDS011;8461;52.356;10.704;2022-09-02T08:46:49;4.60;;;1.20;;
13741;SDS011;8461;52.356;10.704;2022-09-02T08:49:34;3.57;;;1.20;;
13741;SDS011;8461;52.356;10.704;2022-09-02T08:52:58;3.67;;;1.50;;
13741;SDS011;8461;52.356;10.704;2022-09-02T08:55:20;3.90;;;1.33;;
13741;SDS011;8461;52.356;10.704;2022-09-02T08:57:50;2.43;;;0.93;;
13741;SDS011;8461;52.356;10.704;2022-09-02T09:00:16;3.27;;;1.00;;
13741;SDS011;8461;52.356;10.704;2022-09-02T09:02:59;4.40;;;1.00;;
13741;SDS011;8461;52.356;10.704;2022-09-02T09:13:24;2.57;;;1.03;;
13741;SDS011;8461;52.356;10.704;2022-09-02T09:18:45;1.37;;;0.70;;
13741;SDS011;8461;52.356;10.704;2022-09-02T09:21:14;2.17;;;0.87;;
13741;SDS011;8461;52.356;10.704;2022-09-02T09:23:39;1.07;;;0.50;;
13741;SDS011;8461;52.356;10.704;2022-09-02T09:26:12;2.00;;;0.70;;
13741;SDS011;8461;52.356;10.704;2022-09-02T09:28:44;3.10;;;0.60;;
13741;SDS011;8461;52.356;10.704;2022-09-02T09:31:19;3.50;;;0.60;;
13741;SDS011;8461;52.356;10.704;2022-09-02T09:33:59;1.80;;;0.80;;
13741;SDS011;8461;52.356;10.704;2022-09-02T09:36:42;2.30;;;0.70;;
13741;SDS011;8461;52.356;10.704;2022-09-02T09:41:49;1.07;;;0.60;;
13741;SDS011;8461;52.356;10.704;2022-09-02T09:44:43;2.10;;;0.70;;
13741;SDS011;8461;52.356;10.704;2022-09-02T09:47:20;0.70;;;0.50;;
13741;SDS011;8461;52.356;10.704;2022-09-02T09:49:54;4.73;;;0.80;;
13741;SDS011;8461;52.356;10.704;2022-09-02T09:52:36;5.00;;;0.60;;
13741;SDS011;8461;52.356;10.704;2022-09-02T09:55:18;4.23;;;0.60;;
13741;SDS011;8461;52.356;10.704;2022-09-02T09:57:46;1.50;;;0.57;;
13741;SDS011;8461;52.356;10.704;2022-09-02T10:02:57;4.67;;;0.77;;
13741;SDS011;8461;52.356;10.704;2022-09-02T10:08:05;1.37;;;0.57;;
13741;SDS011;8461;52.356;10.704;2022-09-02T10:10:57;2.60;;;0.60;;
13741;SDS011;8461;52.356;10.704;2022-09-02T10:13:29;3.43;;;0.57;;
13741;SDS011;8461;52.356;10.704;2022-09-02T10:18:45;0.90;;;0.50;;
13741;SDS011;8461;52.356;10.704;2022-09-02T10:28:21;2.60;;;0.57;;
13741;SDS011;8461;52.356;10.704;2022-09-02T10:30:15;1.77;;;0.50;;
13741;SDS011;8461;52.356;10.704;2022-09-02T10:46:00;2.30;;;0.70;;
13741;SDS011;8461;52.356;10.704;2022-09-02T10:48:41;2.47;;;0.77;;
13741;SDS011;8461;52.356;10.704;2022-09-02T10:56:43;4.67;;;0.63;;
13741;SDS011;8461;52.356;10.704;2022-09-02T10:59:17;4.20;;;0.70;;
13741;SDS011;8461;52.356;10.704;2022-09-02T11:04:52;2.17;;;0.70;;
13741;SDS011;8461;52.356;10.704;2022-09-02T11:07:29;3.47;;;1.00;;
13741;SDS011;8461;52.356;10.704;2022-09-02T11:10:04;1.33;;;0.67;;
13741;SDS011;8461;52.356;10.704;2022-09-02T11:12:37;2.57;;;0.67;;
13741;SDS011;8461;52.356;10.704;2022-09-02T11:20:43;1.30;;;0.50;;
13741;SDS011;8461;52.356;10.704;2022-09-02T11:25:56;1.63;;;0.33;;
13741;SDS011;8461;52.356;10.704;2022-09-02T11:31:06;4.87;;;0.57;;
13741;SDS011;8461;52.356;10.704;2022-09-02T11:36:18;1.83;;;0.63;;
13741;SDS011;8461;52.356;10.704;2022-09-02T11:38:48;4.77;;;0.77;;
13741;SDS011;8461;52.356;10.704;2022-09-02T11:41:37;2.87;;;0.50;;
13741;SDS011;8461;52.356;10.704;2022-09-02T11:52:54;1.30;;;0.50;;
13741;SDS011;8461;52.356;10.704;2022-09-02T11:55:45;1.77;;;0.60;;
13741;SDS011;8461;52.356;10.704;2022-09-02T11:58:28;1.03;;;0.50;;
13741;SDS011;8461;52.356;10.704;2022-09-02T12:03:56;2.83;;;0.87;;
13741;SDS011;8461;52.356;10.704;2022-09-02T12:07:21;2.00;;;0.60;;
13741;SDS011;8461;52.356;10.704;2022-09-02T12:09:47;0.63;;;0.33;;
13741;SDS011;8461;52.356;10.704;2022-09-02T12:15:01;1.50;;;0.60;;
13741;SDS011;8461;52.356;10.704;2022-09-02T12:17:37;2.07;;;0.40;;
13741;SDS011;8461;52.356;10.704;2022-09-02T12:20:05;3.73;;;0.73;;
13741;SDS011;8461;52.356;10.704;2022-09-02T12:22:34;2.90;;;0.40;;
13741;SDS011;8461;52.356;10.704;2022-09-02T12:27:48;3.03;;;0.67;;
13741;SDS011;8461;52.356;10.704;2022-09-02T12:30:14;2.70;;;0.60;;
13741;SDS011;8461;52.356;10.704;2022-09-02T12:33:34;2.57;;;0.60;;
13741;SDS011;8461;52.356;10.704;2022-09-02T12:36:01;1.93;;;0.50;;
13741;SDS011;8461;52.356;10.704;2022-09-02T12:38:32;1.23;;;0.40;;
13741;SDS011;8461;52.356;10.704;2022-09-02T12:43:30;1.27;;;0.40;;
13741;SDS011;8461;52.356;10.704;2022-09-02T12:46:04;4.37;;;0.60;;
13741;SDS011;8461;52.356;10.704;2022-09-02T12:48:43;3.20;;;0.40;;
13741;SDS011;8461;52.356;10.704;2022-09-02T12:52:37;2.23;;;0.40;;
13741;SDS011;8461;52.356;10.704;2022-09-02T12:54:24;1.43;;;0.43;;
13741;SDS011;8461;52.356;10.704;2022-09-02T12:56:52;2.33;;;0.40;;
13741;SDS011;8461;52.356;10.704;2022-09-02T12:59:28;0.70;;;0.30;;
13741;SDS011;8461;52.356;10.704;2022-09-02T13:15:25;1.83;;;0.80;;
13741;SDS011;8461;52.356;10.704;2022-09-02T13:26:38;7.23;;;0.60;;
13741;SDS011;8461;52.356;10.704;2022-09-02T13:32:14;0.80;;;0.40;;
13741;SDS011;8461;52.356;10.704;2022-09-02T13:34:47;1.27;;;0.20;;
13741;SDS011;8461;52.356;10.704;2022-09-02T13:39:57;1.90;;;0.57;;
13741;SDS011;8461;52.356;10.704;2022-09-02T13:42:25;1.50;;;0.50;;
13741;SDS011;8461;52.356;10.704;2022-09-02T13:45:08;0.63;;;0.20;;
13741;SDS011;8461;52.356;10.704;2022-09-02T13:47:46;2.73;;;0.40;;
13741;SDS011;8461;52.356;10.704;2022-09-02T13:50:15;3.73;;;0.90;;
13741;SDS011;8461;52.356;10.704;2022-09-02T13:52:44;1.90;;;0.40;;
13741;SDS011;8461;52.356;10.704;2022-09-02T13:55:12;6.50;;;0.40;;
13741;SDS011;8461;52.356;10.704;2022-09-02T13:57:42;0.70;;;0.30;;
13741;SDS011;8461;52.356;10.704;2022-09-02T14:00:14;5.57;;;0.40;;
13741;SDS011;8461;52.356;10.704;2022-09-02T14:02:56;0.33;;;0.20;;
13741;SDS011;8461;52.356;10.704;2022-09-02T14:05:32;5.03;;;0.40;;
13741;SDS011;8461;52.356;10.704;2022-09-02T14:08:02;3.10;;;0.30;;
13741;SDS011;8461;52.356;10.704;2022-09-02T14:10:31;3.27;;;0.40;;
13741;SDS011;8461;52.356;10.704;2022-09-02T14:12:58;3.40;;;0.30;;
13741;SDS011;8461;52.356;10.704;2022-09-02T14:15:28;2.10;;;0.20;;
13741;SDS011;8461;52.356;10.704;2022-09-02T14:20:59;4.13;;;0.30;;
13741;SDS011;8461;52.356;10.704;2022-09-02T14:23:46;0.47;;;0.30;;
13741;SDS011;8461;52.356;10.704;2022-09-02T14:26:31;0.90;;;0.30;;
13741;SDS011;8461;52.356;10.704;2022-09-02T14:29:05;0.80;;;0.30;;
13741;SDS011;8461;52.356;10.704;2022-09-02T14:31:32;1.43;;;0.37;;
13741;SDS011;8461;52.356;10.704;2022-09-02T14:33:59;0.70;;;0.40;;
13741;SDS011;8461;52.356;10.704;2022-09-02T14:36:36;0.50;;;0.30;;
13741;SDS011;8461;52.356;10.704;2022-09-02T14:39:16;1.20;;;0.37;;
13741;SDS011;8461;52.356;10.704;2022-09-02T14:41:44;2.30;;;0.40;;
13741;SDS011;8461;52.356;10.704;2022-09-02T14:44:14;2.97;;;0.47;;
13741;SDS011;8461;52.356;10.704;2022-09-02T14:46:56;2.10;;;0.40;;
13741;SDS011;8461;52.356;10.704;2022-09-02T14:51:57;2.17;;;0.50;;
13741;SDS011;8461;52.356;10.704;2022-09-02T14:54:38;3.40;;;0.30;;
13741;SDS011;8461;52.356;10.704;2022-09-02T14:57:28;2.93;;;0.40;;
13741;SDS011;8461;52.356;10.704;2022-09-02T14:59:52;1.13;;;0.50;;
13741;SDS011;8461;52.356;10.704;2022-09-02T15:02:27;1.73;;;0.30;;
13741;SDS011;8461;52.356;10.704;2022-09-02T15:04:58;0.50;;;0.30;;
13741;SDS011;8461;52.356;10.704;2022-09-02T15:07:31;1.13;;;0.33;;
13741;SDS011;8461;52.356;10.704;2022-09-02T15:09:57;0.43;;;0.20;;
13741;SDS011;8461;52.356;10.704;2022-09-02T15:12:23;0.70;;;0.40;;
13741;SDS011;8461;52.356;10.704;2022-09-02T15:14:53;3.30;;;0.40;;
13741;SDS011;8461;52.356;10.704;2022-09-02T15:17:20;2.13;;;0.43;;
13741;SDS011;8461;52.356;10.704;2022-09-02T15:19:46;0.53;;;0.30;;
13741;SDS011;8461;52.356;10.704;2022-09-02T15:22:12;1.27;;;0.30;;
13741;SDS011;8461;52.356;10.704;2022-09-02T15:24:39;4.40;;;0.30;;
13741;SDS011;8461;52.356;10.704;2022-09-02T15:27:05;5.03;;;0.50;;
13741;SDS011;8461;52.356;10.704;2022-09-02T15:29:31;3.53;;;0.40;;
13741;SDS011;8461;52.356;10.704;2022-09-02T15:31:57;3.33;;;0.40;;
13741;SDS011;8461;52.356;10.704;2022-09-02T15:34:24;3.00;;;0.50;;
13741;SDS011;8461;52.356;10.704;2022-09-02T15:36:49;4.07;;;0.50;;
13741;SDS011;8461;52.356;10.704;2022-09-02T15:39:15;1.03;;;0.30;;
13741;SDS011;8461;52.356;10.704;2022-09-02T15:41:43;2.17;;;0.40;;
13741;SDS011;8461;52.356;10.704;2022-09-02T15:44:09;0.50;;;0.33;;
13741;SDS011;8461;52.356;10.704;2022-09-02T15:46:34;5.63;;;0.50;;
13741;SDS011;8461;52.356;10.704;2022-09-02T15:49:04;3.70;;;0.40;;
13741;SDS011;8461;52.356;10.704;2022-09-02T15:51:32;4.93;;;0.30;;
13741;SDS011;8461;52.356;10.704;2022-09-02T15:54:00;3.33;;;0.40;;
13741;SDS011;8461;52.356;10.704;2022-09-02T15:56:31;3.17;;;0.50;;
13741;SDS011;8461;52.356;10.704;2022-09-02T15:59:02;1.60;;;0.20;;
13741;SDS011;8461;52.356;10.704;2022-09-02T16:01:34;2.10;;;0.40;;
13741;SDS011;8461;52.356;10.704;2022-09-02T16:04:02;1.40;;;0.30;;
13741;SDS011;8461;52.356;10.704;2022-09-02T16:06:29;1.90;;;0.20;;
13741;SDS011;8461;52.356;10.704;2022-09-02T16:08:55;3.27;;;0.43;;
13741;SDS011;8461;52.356;10.704;2022-09-02T16:11:21;0.67;;;0.30;;
13741;SDS011;8461;52.356;10.704;2022-09-02T16:13:47;2.93;;;0.30;;
13741;SDS011;8461;52.356;10.704;2022-09-02T16:16:13;0.73;;;0.30;;
13741;SDS011;8461;52.356;10.704;2022-09-02T16:18:40;2.33;;;0.60;;
13741;SDS011;8461;52.356;10.704;2022-09-02T16:21:07;4.03;;;0.80;;
13741;SDS011;8461;52.356;10.704;2022-09-02T16:23:33;3.03;;;0.70;;
13741;SDS011;8461;52.356;10.704;2022-09-02T16:28:46;4.47;;;0.60;;
13741;SDS011;8461;52.356;10.704;2022-09-02T16:31:14;4.83;;;0.60;;
13741;SDS011;8461;52.356;10.704;2022-09-02T16:33:41;2.10;;;0.30;;
13741;SDS011;8461;52.356;10.704;2022-09-02T16:36:08;6.53;;;0.50;;
13741;SDS011;8461;52.356;10.704;2022-09-02T16:38:34;5.10;;;0.50;;
13741;SDS011;8461;52.356;10.704;2022-09-02T16:41:01;2.10;;;0.30;;
13741;SDS011;8461;52.356;10.704;2022-09-02T16:43:28;2.90;;;0.40;;
13741;SDS011;8461;52.356;10.704;2022-09-02T16:45:56;1.20;;;0.40;;
13741;SDS011;8461;52.356;10.704;2022-09-02T16:48:28;2.20;;;0.40;;
13741;SDS011;8461;52.356;10.704;2022-09-02T16:50:59;3.20;;;0.50;;
13741;SDS011;8461;52.356;10.704;2022-09-02T16:53:26;1.47;;;0.50;;
13741;SDS011;8461;52.356;10.704;2022-09-02T16:55:52;0.87;;;0.33;;
13741;SDS011;8461;52.356;10.704;2022-09-02T16:58:18;1.00;;;0.30;;
13741;SDS011;8461;52.356;10.704;2022-09-02T17:00:43;0.90;;;0.60;;